sensor_id;sensor_type;location;lat;lon;timestamp;pressure;altitude;pressure_sealevel;temperature;humidity
80682;BME280;70045;40.200;44.582;2023-08-06T00:00:40;86335.91;;;23.02;39.69
80682;BME280;70045;40.200;44.582;2023-08-06T00:03:06;86341.94;;;23.02;39.22
80682;BME280;70045;40.200;44.582;2023-08-06T00:05:31;86345.78;;;23.01;39.69
80682;BME280;70045;40.200;44.582;2023-08-06T00:07:57;86342.66;;;22.97;39.97
80682;BME280;70045;40.200;44.582;2023-08-06T00:10:25;86336.84;;;22.93;40.30
80682;BME280;70045;40.200;44.582;2023-08-06T00:12:50;86340.94;;;22.88;39.72
80682;BME280;70045;40.200;44.582;2023-08-06T00:15:15;86337.53;;;22.88;39.91
80682;BME280;70045;40.200;44.582;2023-08-06T00:17:41;86333.00;;;22.88;39.84
80682;BME280;70045;40.200;44.582;2023-08-06T00:20:07;86336.38;;;22.89;40.09
80682;BME280;70045;40.200;44.582;2023-08-06T00:22:36;86335.88;;;22.90;40.53
80682;BME280;70045;40.200;44.582;2023-08-06T00:25:03;86333.25;;;22.90;40.04
80682;BME280;70045;40.200;44.582;2023-08-06T00:27:29;86334.66;;;22.86;39.89
80682;BME280;70045;40.200;44.582;2023-08-06T00:29:54;86338.03;;;22.86;39.98
80682;BME280;70045;40.200;44.582;2023-08-06T00:32:21;86341.41;;;22.87;39.66
80682;BME280;70045;40.200;44.582;2023-08-06T00:34:49;86327.91;;;22.79;41.05
80682;BME280;70045;40.200;44.582;2023-08-06T00:37:15;86334.91;;;22.88;40.49
80682;BME280;70045;40.200;44.582;2023-08-06T00:39:41;86330.59;;;22.85;39.83
80682;BME280;70045;40.200;44.582;2023-08-06T00:42:06;86331.28;;;22.80;39.80
80682;BME280;70045;40.200;44.582;2023-08-06T00:44:31;86328.13;;;22.70;41.19
80682;BME280;70045;40.200;44.582;2023-08-06T00:47:00;86331.19;;;22.57;41.28
80682;BME280;70045;40.200;44.582;2023-08-06T00:49:26;86327.97;;;22.42;40.65
80682;BME280;70045;40.200;44.582;2023-08-06T00:51:52;86343.13;;;22.47;41.03
80682;BME280;70045;40.200;44.582;2023-08-06T00:54:17;86341.88;;;22.36;41.26
80682;BME280;70045;40.200;44.582;2023-08-06T00:56:42;86345.47;;;22.33;40.97
80682;BME280;70045;40.200;44.582;2023-08-06T00:59:11;86341.63;;;22.34;41.68
80682;BME280;70045;40.200;44.582;2023-08-06T01:01:37;86350.97;;;22.30;41.72
80682;BME280;70045;40.200;44.582;2023-08-06T01:04:03;86341.53;;;22.23;41.58
80682;BME280;70045;40.200;44.582;2023-08-06T01:06:48;86344.84;;;22.18;42.29
80682;BME280;70045;40.200;44.582;2023-08-06T01:11:57;86354.59;;;22.06;42.31
80682;BME280;70045;40.200;44.582;2023-08-06T01:14:28;86348.84;;;22.02;42.80
80682;BME280;70045;40.200;44.582;2023-08-06T01:16:58;86343.28;;;21.94;42.11
80682;BME280;70045;40.200;44.582;2023-08-06T01:19:26;86341.31;;;21.89;42.11
80682;BME280;70045;40.200;44.582;2023-08-06T01:21:52;86354.72;;;21.86;42.63
80682;BME280;70045;40.200;44.582;2023-08-06T01:24:17;86351.88;;;21.89;42.16
80682;BME280;70045;40.200;44.582;2023-08-06T01:26:46;86344.19;;;21.91;42.32
80682;BME280;70045;40.200;44.582;2023-08-06T01:29:24;86350.41;;;21.88;42.39
80682;BME280;70045;40.200;44.582;2023-08-06T01:31:55;86348.03;;;21.90;42.13
80682;BME280;70045;40.200;44.582;2023-08-06T01:34:22;86339.88;;;21.94;42.06
80682;BME280;70045;40.200;44.582;2023-08-06T01:36:49;86345.22;;;21.99;41.41
80682;BME280;70045;40.200;44.582;2023-08-06T01:39:15;86342.84;;;22.02;42.03
80682;BME280;70045;40.200;44.582;2023-08-06T01:41:40;86349.31;;;22.06;41.19
80682;BME280;70045;40.200;44.582;2023-08-06T01:44:08;86350.06;;;22.07;42.13
80682;BME280;70045;40.200;44.582;2023-08-06T01:48:59;86345.53;;;22.13;41.32
80682;BME280;70045;40.200;44.582;2023-08-06T01:51:24;86347.00;;;22.14;41.04
80682;BME280;70045;40.200;44.582;2023-08-06T01:53:50;86347.50;;;22.18;41.05
80682;BME280;70045;40.200;44.582;2023-08-06T01:56:18;86353.72;;;22.15;41.77
80682;BME280;70045;40.200;44.582;2023-08-06T01:58:43;86349.13;;;22.10;41.65
80682;BME280;70045;40.200;44.582;2023-08-06T02:01:09;86330.75;;;21.89;41.72
80682;BME280;70045;40.200;44.582;2023-08-06T02:03:34;86356.28;;;22.04;41.69
80682;BME280;70045;40.200;44.582;2023-08-06T02:05:59;86357.94;;;22.01;41.90
80682;BME280;70045;40.200;44.582;2023-08-06T02:08:27;86360.25;;;21.88;42.43
80682;BME280;70045;40.200;44.582;2023-08-06T02:10:53;86364.06;;;21.87;42.34
80682;BME280;70045;40.200;44.582;2023-08-06T02:13:18;86360.97;;;21.88;42.58
80682;BME280;70045;40.200;44.582;2023-08-06T02:15:44;86365.75;;;21.84;42.90
80682;BME280;70045;40.200;44.582;2023-08-06T02:18:10;86363.34;;;21.86;42.50
80682;BME280;70045;40.200;44.582;2023-08-06T02:20:38;86370.34;;;21.89;42.40
80682;BME280;70045;40.200;44.582;2023-08-06T02:23:03;86369.66;;;21.94;41.82
80682;BME280;70045;40.200;44.582;2023-08-06T02:25:29;86364.63;;;21.96;42.32
80682;BME280;70045;40.200;44.582;2023-08-06T02:27:54;86373.53;;;21.99;41.87
80682;BME280;70045;40.200;44.582;2023-08-06T02:30:19;86361.75;;;21.94;42.05
80682;BME280;70045;40.200;44.582;2023-08-06T02:32:49;86373.84;;;22.07;42.50
80682;BME280;70045;40.200;44.582;2023-08-06T02:35:14;86380.31;;;22.11;41.42
80682;BME280;70045;40.200;44.582;2023-08-06T02:37:40;86382.75;;;22.15;41.61
80682;BME280;70045;40.200;44.582;2023-08-06T02:40:05;86381.31;;;22.14;41.82
80682;BME280;70045;40.200;44.582;2023-08-06T02:42:31;86376.53;;;22.18;41.87
80682;BME280;70045;40.200;44.582;2023-08-06T02:44:59;86381.38;;;22.25;41.62
80682;BME280;70045;40.200;44.582;2023-08-06T02:47:24;86383.84;;;22.29;41.40
80682;BME280;70045;40.200;44.582;2023-08-06T02:49:50;86383.66;;;22.38;41.16
80682;BME280;70045;40.200;44.582;2023-08-06T02:52:15;86388.03;;;22.47;41.29
80682;BME280;70045;40.200;44.582;2023-08-06T02:54:41;86388.06;;;22.52;40.94
80682;BME280;70045;40.200;44.582;2023-08-06T02:57:09;86388.56;;;22.56;41.12
80682;BME280;70045;40.200;44.582;2023-08-06T02:59:34;86390.75;;;22.58;40.83
80682;BME280;70045;40.200;44.582;2023-08-06T03:02:00;86400.16;;;22.65;40.92
80682;BME280;70045;40.200;44.582;2023-08-06T03:04:25;86392.25;;;22.70;40.79
80682;BME280;70045;40.200;44.582;2023-08-06T03:06:51;86398.53;;;22.79;40.68
80682;BME280;70045;40.200;44.582;2023-08-06T03:09:19;86399.09;;;22.88;40.71
80682;BME280;70045;40.200;44.582;2023-08-06T03:11:44;86396.72;;;22.96;40.21
80682;BME280;70045;40.200;44.582;2023-08-06T03:14:10;86398.91;;;23.03;40.16
80682;BME280;70045;40.200;44.582;2023-08-06T03:16:35;86406.44;;;23.16;39.99
80682;BME280;70045;40.200;44.582;2023-08-06T03:19:01;86395.66;;;23.25;39.72
80682;BME280;70045;40.200;44.582;2023-08-06T03:21:29;86393.25;;;23.33;39.39
80682;BME280;70045;40.200;44.582;2023-08-06T03:23:54;86396.66;;;23.45;39.45
80682;BME280;70045;40.200;44.582;2023-08-06T03:26:20;86398.88;;;23.58;39.52
80682;BME280;70045;40.200;44.582;2023-08-06T03:28:45;86394.56;;;23.66;39.17
80682;BME280;70045;40.200;44.582;2023-08-06T03:31:10;86401.06;;;23.76;39.42
80682;BME280;70045;40.200;44.582;2023-08-06T03:33:38;86402.31;;;23.92;39.03
80682;BME280;70045;40.200;44.582;2023-08-06T03:36:04;86396.56;;;23.99;39.00
80682;BME280;70045;40.200;44.582;2023-08-06T03:38:29;86406.44;;;24.16;38.50
80682;BME280;70045;40.200;44.582;2023-08-06T03:40:55;86408.84;;;24.31;38.61
80682;BME280;70045;40.200;44.582;2023-08-06T03:43:20;86410.06;;;24.41;38.45
80682;BME280;70045;40.200;44.582;2023-08-06T03:45:48;86411.28;;;24.51;36.67
80682;BME280;70045;40.200;44.582;2023-08-06T03:48:13;86411.03;;;24.60;37.40
80682;BME280;70045;40.200;44.582;2023-08-06T03:50:39;86411.72;;;24.67;36.09
80682;BME280;70045;40.200;44.582;2023-08-06T03:53:04;86417.31;;;24.69;36.42
80682;BME280;70045;40.200;44.582;2023-08-06T03:55:30;86417.03;;;24.78;35.97
80682;BME280;70045;40.200;44.582;2023-08-06T03:57:58;86412.94;;;24.83;35.28
80682;BME280;70045;40.200;44.582;2023-08-06T04:00:23;86419.91;;;24.91;35.57
80682;BME280;70045;40.200;44.582;2023-08-06T04:02:49;86419.66;;;24.95;35.29
80682;BME280;70045;40.200;44.582;2023-08-06T04:05:14;86417.00;;;25.00;35.25
80682;BME280;70045;40.200;44.582;2023-08-06T04:07:39;86414.81;;;25.05;35.35
80682;BME280;70045;40.200;44.582;2023-08-06T04:10:08;86417.47;;;25.10;34.50
80682;BME280;70045;40.200;44.582;2023-08-06T04:12:33;86411.16;;;25.13;35.10
80682;BME280;70045;40.200;44.582;2023-08-06T04:15:00;86416.94;;;25.17;34.60
80682;BME280;70045;40.200;44.582;2023-08-06T04:17:25;86422.50;;;25.25;34.95
80682;BME280;70045;40.200;44.582;2023-08-06T04:19:53;86421.97;;;25.32;35.45
80682;BME280;70045;40.200;44.582;2023-08-06T04:22:21;86422.50;;;25.25;35.51
80682;BME280;70045;40.200;44.582;2023-08-06T04:24:47;86417.41;;;25.22;36.10
80682;BME280;70045;40.200;44.582;2023-08-06T04:27:14;86422.50;;;25.25;34.89
80682;BME280;70045;40.200;44.582;2023-08-06T04:29:40;86396.72;;;25.09;34.88
80682;BME280;70045;40.200;44.582;2023-08-06T04:32:07;86417.66;;;25.18;34.73
80682;BME280;70045;40.200;44.582;2023-08-06T04:34:36;86425.16;;;25.08;35.56
80682;BME280;70045;40.200;44.582;2023-08-06T04:37:03;86424.91;;;25.12;35.27
80682;BME280;70045;40.200;44.582;2023-08-06T04:39:29;86427.34;;;25.15;36.02
80682;BME280;70045;40.200;44.582;2023-08-06T04:41:56;86422.00;;;25.21;35.09
80682;BME280;70045;40.200;44.582;2023-08-06T04:44:21;86422.22;;;25.23;34.36
80682;BME280;70045;40.200;44.582;2023-08-06T04:46:50;86423.69;;;25.24;34.17
80682;BME280;70045;40.200;44.582;2023-08-06T04:49:15;86425.84;;;25.31;34.23
80682;BME280;70045;40.200;44.582;2023-08-06T04:51:41;86424.63;;;25.32;34.38
80682;BME280;70045;40.200;44.582;2023-08-06T04:54:06;86422.72;;;25.33;34.37
80682;BME280;70045;40.200;44.582;2023-08-06T04:56:32;86425.13;;;25.36;33.49
80682;BME280;70045;40.200;44.582;2023-08-06T04:59:00;86415.19;;;25.43;33.72
80682;BME280;70045;40.200;44.582;2023-08-06T05:01:25;86413.69;;;25.53;34.04
80682;BME280;70045;40.200;44.582;2023-08-06T05:03:51;86409.28;;;25.67;33.67
80682;BME280;70045;40.200;44.582;2023-08-06T05:06:16;86410.72;;;25.73;33.28
80682;BME280;70045;40.200;44.582;2023-08-06T05:08:42;86409.84;;;25.54;33.19
80682;BME280;70045;40.200;44.582;2023-08-06T05:11:10;86409.09;;;25.59;34.03
80682;BME280;70045;40.200;44.582;2023-08-06T05:13:37;86411.69;;;25.70;33.32
80682;BME280;70045;40.200;44.582;2023-08-06T05:16:03;86404.38;;;25.82;33.34
80682;BME280;70045;40.200;44.582;2023-08-06T05:18:28;86405.31;;;25.85;33.31
80682;BME280;70045;40.200;44.582;2023-08-06T05:20:54;86394.97;;;25.81;32.64
80682;BME280;70045;40.200;44.582;2023-08-06T05:23:22;86401.91;;;26.01;32.22
80682;BME280;70045;40.200;44.582;2023-08-06T05:25:47;86403.25;;;26.14;32.78
80682;BME280;70045;40.200;44.582;2023-08-06T05:28:13;86405.59;;;26.23;32.64
80682;BME280;70045;40.200;44.582;2023-08-06T05:30:41;86392.56;;;26.25;32.30
80682;BME280;70045;40.200;44.582;2023-08-06T05:33:07;86393.44;;;26.33;32.44
80682;BME280;70045;40.200;44.582;2023-08-06T05:35:35;86399.91;;;26.43;32.01
80682;BME280;70045;40.200;44.582;2023-08-06T05:38:00;86393.81;;;26.48;32.34
80682;BME280;70045;40.200;44.582;2023-08-06T05:40:28;86400.97;;;26.65;31.90
80682;BME280;70045;40.200;44.582;2023-08-06T05:42:54;86401.53;;;26.82;32.00
80682;BME280;70045;40.200;44.582;2023-08-06T05:45:20;86389.13;;;26.91;31.95
80682;BME280;70045;40.200;44.582;2023-08-06T05:47:48;86393.44;;;26.94;31.07
80682;BME280;70045;40.200;44.582;2023-08-06T05:50:13;86388.97;;;26.83;30.90
80682;BME280;70045;40.200;44.582;2023-08-06T05:52:39;86393.06;;;26.84;31.26
80682;BME280;70045;40.200;44.582;2023-08-06T05:55:04;86390.56;;;26.92;31.20
80682;BME280;70045;40.200;44.582;2023-08-06T05:57:30;86385.16;;;27.03;31.32
80682;BME280;70045;40.200;44.582;2023-08-06T05:59:58;86389.44;;;27.06;30.89
80682;BME280;70045;40.200;44.582;2023-08-06T06:02:23;86377.72;;;27.20;31.46
80682;BME280;70045;40.200;44.582;2023-08-06T06:04:49;86382.00;;;27.23;30.64
80682;BME280;70045;40.200;44.582;2023-08-06T06:07:14;86377.03;;;27.39;30.84
80682;BME280;70045;40.200;44.582;2023-08-06T06:09:40;86379.91;;;27.41;30.46
80682;BME280;70045;40.200;44.582;2023-08-06T06:12:08;86374.97;;;27.26;30.06
80682;BME280;70045;40.200;44.582;2023-08-06T06:14:33;86372.00;;;27.35;30.53
80682;BME280;70045;40.200;44.582;2023-08-06T06:16:59;86360.97;;;27.45;30.49
80682;BME280;70045;40.200;44.582;2023-08-06T06:19:25;86358.41;;;27.58;29.66
80682;BME280;70045;40.200;44.582;2023-08-06T06:21:50;86363.53;;;27.75;30.11
80682;BME280;70045;40.200;44.582;2023-08-06T06:24:18;86373.50;;;27.88;29.24
80682;BME280;70045;40.200;44.582;2023-08-06T06:26:46;86361.56;;;27.75;29.15
80682;BME280;70045;40.200;44.582;2023-08-06T06:29:11;86365.41;;;27.61;28.93
80682;BME280;70045;40.200;44.582;2023-08-06T06:31:37;86363.53;;;27.56;28.59
80682;BME280;70045;40.200;44.582;2023-08-06T06:34:02;86344.38;;;27.57;29.23
80682;BME280;70045;40.200;44.582;2023-08-06T06:36:30;86364.59;;;27.85;28.67
80682;BME280;70045;40.200;44.582;2023-08-06T06:38:56;86351.41;;;28.12;29.58
80682;BME280;70045;40.200;44.582;2023-08-06T06:41:21;86356.50;;;28.29;28.76
80682;BME280;70045;40.200;44.582;2023-08-06T06:43:46;86354.75;;;28.31;28.43
80682;BME280;70045;40.200;44.582;2023-08-06T06:46:12;86350.28;;;28.40;28.54
80682;BME280;70045;40.200;44.582;2023-08-06T06:48:40;86351.72;;;28.41;27.89
80682;BME280;70045;40.200;44.582;2023-08-06T06:51:05;86346.19;;;28.52;28.85
80682;BME280;70045;40.200;44.582;2023-08-06T06:53:31;86342.22;;;28.59;28.63
80682;BME280;70045;40.200;44.582;2023-08-06T06:56:01;86348.81;;;28.71;28.48
80682;BME280;70045;40.200;44.582;2023-08-06T06:58:26;86344.44;;;28.73;27.28
80682;BME280;70045;40.200;44.582;2023-08-06T07:00:55;86342.16;;;28.78;27.66
80682;BME280;70045;40.200;44.582;2023-08-06T07:03:20;86345.88;;;28.88;27.88
80682;BME280;70045;40.200;44.582;2023-08-06T07:05:46;86340.34;;;28.86;27.29
80682;BME280;70045;40.200;44.582;2023-08-06T07:08:11;86337.69;;;28.99;28.06
80682;BME280;70045;40.200;44.582;2023-08-06T07:10:37;86331.09;;;29.14;27.82
80682;BME280;70045;40.200;44.582;2023-08-06T07:13:05;86326.63;;;29.22;26.64
80682;BME280;70045;40.200;44.582;2023-08-06T07:15:30;86326.50;;;29.27;27.65
80682;BME280;70045;40.200;44.582;2023-08-06T07:17:56;86331.09;;;29.40;27.50
80682;BME280;70045;40.200;44.582;2023-08-06T07:20:21;86324.94;;;29.45;27.29
80682;BME280;70045;40.200;44.582;2023-08-06T07:22:47;86320.22;;;29.52;26.77
80682;BME280;70045;40.200;44.582;2023-08-06T07:25:15;86320.47;;;29.61;26.90
80682;BME280;70045;40.200;44.582;2023-08-06T07:27:45;86320.16;;;29.65;26.74
80682;BME280;70045;40.200;44.582;2023-08-06T07:30:10;86323.22;;;29.82;26.84
80682;BME280;70045;40.200;44.582;2023-08-06T07:32:35;86302.97;;;29.87;26.47
80682;BME280;70045;40.200;44.582;2023-08-06T07:35:01;86307.56;;;30.00;26.62
80682;BME280;70045;40.200;44.582;2023-08-06T07:37:29;86313.81;;;30.02;25.83
80682;BME280;70045;40.200;44.582;2023-08-06T07:39:55;86315.88;;;29.96;25.79
80682;BME280;70045;40.200;44.582;2023-08-06T07:42:21;86308.72;;;29.91;25.67
80682;BME280;70045;40.200;44.582;2023-08-06T07:44:56;86310.09;;;29.71;25.20
80682;BME280;70045;40.200;44.582;2023-08-06T07:47:22;86309.56;;;29.86;25.79
80682;BME280;70045;40.200;44.582;2023-08-06T07:49:50;86299.78;;;29.89;26.12
80682;BME280;70045;40.200;44.582;2023-08-06T07:52:16;86297.84;;;30.10;26.11
80682;BME280;70045;40.200;44.582;2023-08-06T07:54:41;86297.97;;;30.26;25.70
80682;BME280;70045;40.200;44.582;2023-08-06T07:57:07;86286.09;;;30.13;25.72
80682;BME280;70045;40.200;44.582;2023-08-06T07:59:32;86284.38;;;30.16;25.48
80682;BME280;70045;40.200;44.582;2023-08-06T08:02:01;86285.41;;;30.34;25.87
80682;BME280;70045;40.200;44.582;2023-08-06T08:04:26;86294.81;;;30.48;25.23
80682;BME280;70045;40.200;44.582;2023-08-06T08:06:52;86294.69;;;30.54;25.38
80682;BME280;70045;40.200;44.582;2023-08-06T08:09:17;86282.53;;;30.53;25.27
80682;BME280;70045;40.200;44.582;2023-08-06T08:11:42;86286.84;;;30.56;24.90
80682;BME280;70045;40.200;44.582;2023-08-06T08:14:11;86287.19;;;30.52;24.76
80682;BME280;70045;40.200;44.582;2023-08-06T08:16:36;86283.84;;;30.59;24.46
80682;BME280;70045;40.200;44.582;2023-08-06T08:19:01;86279.66;;;30.72;24.91
80682;BME280;70045;40.200;44.582;2023-08-06T08:21:27;86274.66;;;30.76;24.73
80682;BME280;70045;40.200;44.582;2023-08-06T08:23:52;86272.50;;;30.74;24.63
80682;BME280;70045;40.200;44.582;2023-08-06T08:26:20;86265.13;;;30.59;24.36
80682;BME280;70045;40.200;44.582;2023-08-06T08:28:46;86271.25;;;30.68;24.95
80682;BME280;70045;40.200;44.582;2023-08-06T08:31:19;86272.47;;;30.67;24.16
80682;BME280;70045;40.200;44.582;2023-08-06T08:33:44;86268.84;;;30.85;24.74
80682;BME280;70045;40.200;44.582;2023-08-06T08:36:10;86267.56;;;31.07;24.08
80682;BME280;70045;40.200;44.582;2023-08-06T08:38:38;86262.47;;;31.25;24.00
80682;BME280;70045;40.200;44.582;2023-08-06T08:41:03;86255.78;;;31.47;23.77
80682;BME280;70045;40.200;44.582;2023-08-06T08:43:31;86268.03;;;31.63;23.29
80682;BME280;70045;40.200;44.582;2023-08-06T08:45:58;86258.94;;;31.82;23.42
80682;BME280;70045;40.200;44.582;2023-08-06T08:48:24;86250.75;;;31.87;23.46
80682;BME280;70045;40.200;44.582;2023-08-06T08:50:53;86255.22;;;32.00;22.99
80682;BME280;70045;40.200;44.582;2023-08-06T08:53:18;86228.25;;;31.98;22.95
80682;BME280;70045;40.200;44.582;2023-08-06T08:55:47;86240.47;;;32.22;21.94
80682;BME280;70045;40.200;44.582;2023-08-06T08:58:14;86235.97;;;32.25;22.41
80682;BME280;70045;40.200;44.582;2023-08-06T09:00:42;86237.59;;;32.43;22.99
80682;BME280;70045;40.200;44.582;2023-08-06T09:03:10;86234.72;;;32.57;22.12
80682;BME280;70045;40.200;44.582;2023-08-06T09:05:37;86233.44;;;33.04;22.33
80682;BME280;70045;40.200;44.582;2023-08-06T09:08:06;86218.84;;;33.38;21.69
80682;BME280;70045;40.200;44.582;2023-08-06T09:10:33;86224.22;;;33.86;20.45
80682;BME280;70045;40.200;44.582;2023-08-06T09:12:59;86222.25;;;34.45;20.43
80682;BME280;70045;40.200;44.582;2023-08-06T09:15:30;86215.38;;;34.94;19.11
80682;BME280;70045;40.200;44.582;2023-08-06T09:17:55;86209.59;;;35.68;19.63
80682;BME280;70045;40.200;44.582;2023-08-06T09:20:21;86209.44;;;36.37;19.17
80682;BME280;70045;40.200;44.582;2023-08-06T09:22:47;86207.31;;;36.83;17.23
80682;BME280;70045;40.200;44.582;2023-08-06T09:25:20;86204.31;;;36.42;17.42
80682;BME280;70045;40.200;44.582;2023-08-06T09:27:49;86209.00;;;36.78;16.28
80682;BME280;70045;40.200;44.582;2023-08-06T09:30:29;86204.13;;;37.62;17.64
80682;BME280;70045;40.200;44.582;2023-08-06T09:32:55;86202.69;;;37.81;16.47
80682;BME280;70045;40.200;44.582;2023-08-06T09:35:21;86192.38;;;38.09;16.61
80682;BME280;70045;40.200;44.582;2023-08-06T09:37:47;86199.66;;;38.06;15.95
80682;BME280;70045;40.200;44.582;2023-08-06T09:40:29;86197.72;;;38.48;16.32
80682;BME280;70045;40.200;44.582;2023-08-06T09:42:56;86177.97;;;39.20;16.28
80682;BME280;70045;40.200;44.582;2023-08-06T09:45:22;86185.22;;;39.48;15.19
80682;BME280;70045;40.200;44.582;2023-08-06T09:47:49;86187.75;;;40.01;16.05
80682;BME280;70045;40.200;44.582;2023-08-06T09:50:20;86176.53;;;40.52;14.01
80682;BME280;70045;40.200;44.582;2023-08-06T09:52:47;86173.69;;;40.62;14.50
80682;BME280;70045;40.200;44.582;2023-08-06T09:55:13;86183.06;;;40.94;14.09
80682;BME280;70045;40.200;44.582;2023-08-06T09:57:40;86175.81;;;41.11;14.04
80682;BME280;70045;40.200;44.582;2023-08-06T10:00:06;86168.00;;;41.17;13.31
80682;BME280;70045;40.200;44.582;2023-08-06T10:02:38;86174.81;;;40.12;13.85
80682;BME280;70045;40.200;44.582;2023-08-06T10:05:04;86170.75;;;40.58;14.04
80682;BME280;70045;40.200;44.582;2023-08-06T10:07:30;86170.88;;;40.72;14.72
80682;BME280;70045;40.200;44.582;2023-08-06T10:09:56;86162.44;;;41.15;14.36
80682;BME280;70045;40.200;44.582;2023-08-06T10:12:22;86156.69;;;41.58;13.14
80682;BME280;70045;40.200;44.582;2023-08-06T10:14:57;86163.13;;;42.28;12.56
80682;BME280;70045;40.200;44.582;2023-08-06T10:17:25;86146.56;;;42.24;12.13
80682;BME280;70045;40.200;44.582;2023-08-06T10:19:51;86156.66;;;42.61;13.29
80682;BME280;70045;40.200;44.582;2023-08-06T10:22:18;86149.13;;;43.01;12.29
80682;BME280;70045;40.200;44.582;2023-08-06T10:24:50;86141.53;;;43.13;12.05
80682;BME280;70045;40.200;44.582;2023-08-06T10:27:30;86130.41;;;43.09;11.77
80682;BME280;70045;40.200;44.582;2023-08-06T10:30:02;86140.44;;;43.04;12.83
80682;BME280;70045;40.200;44.582;2023-08-06T10:32:51;86141.84;;;41.61;12.56
80682;BME280;70045;40.200;44.582;2023-08-06T10:38:20;86131.13;;;42.28;12.28
80682;BME280;70045;40.200;44.582;2023-08-06T10:43:33;86117.63;;;43.55;11.00
80682;BME280;70045;40.200;44.582;2023-08-06T10:46:01;86109.88;;;43.79;11.56
80682;BME280;70045;40.200;44.582;2023-08-06T10:48:40;86103.81;;;44.27;11.25
80682;BME280;70045;40.200;44.582;2023-08-06T10:51:11;86091.03;;;44.31;10.54
80682;BME280;70045;40.200;44.582;2023-08-06T10:53:37;86089.56;;;43.69;10.93
80682;BME280;70045;40.200;44.582;2023-08-06T10:56:18;86065.75;;;43.55;11.31
80682;BME280;70045;40.200;44.582;2023-08-06T10:58:51;86087.25;;;44.54;10.37
80682;BME280;70045;40.200;44.582;2023-08-06T11:01:17;86085.13;;;44.85;11.10
80682;BME280;70045;40.200;44.582;2023-08-06T11:03:43;86075.41;;;44.82;10.54
80682;BME280;70045;40.200;44.582;2023-08-06T11:06:10;86081.50;;;44.96;11.05
80682;BME280;70045;40.200;44.582;2023-08-06T11:08:37;86071.66;;;44.57;10.69
80682;BME280;70045;40.200;44.582;2023-08-06T11:11:13;86075.91;;;45.10;10.57
80682;BME280;70045;40.200;44.582;2023-08-06T11:13:40;86071.91;;;45.47;10.41
80682;BME280;70045;40.200;44.582;2023-08-06T11:16:05;86071.72;;;45.25;9.88
80682;BME280;70045;40.200;44.582;2023-08-06T11:18:32;86066.00;;;45.19;9.83
80682;BME280;70045;40.200;44.582;2023-08-06T11:21:01;86067.38;;;45.36;10.26
80682;BME280;70045;40.200;44.582;2023-08-06T11:23:30;86071.38;;;45.86;9.84
80682;BME280;70045;40.200;44.582;2023-08-06T11:25:58;86052.84;;;46.03;9.46
80682;BME280;70045;40.200;44.582;2023-08-06T11:28:24;86060.50;;;46.07;9.98
80682;BME280;70045;40.200;44.582;2023-08-06T11:30:50;86052.97;;;45.71;9.09
80682;BME280;70045;40.200;44.582;2023-08-06T11:33:23;86061.75;;;45.16;9.38
80682;BME280;70045;40.200;44.582;2023-08-06T11:35:52;86053.28;;;45.43;9.38
80682;BME280;70045;40.200;44.582;2023-08-06T11:38:17;86053.84;;;45.94;9.87
80682;BME280;70045;40.200;44.582;2023-08-06T11:40:47;86051.44;;;46.40;9.59
80682;BME280;70045;40.200;44.582;2023-08-06T11:43:13;86045.44;;;46.64;9.34
80682;BME280;70045;40.200;44.582;2023-08-06T11:45:40;86054.50;;;45.74;9.33
80682;BME280;70045;40.200;44.582;2023-08-06T11:48:08;86056.63;;;46.32;9.51
80682;BME280;70045;40.200;44.582;2023-08-06T11:50:36;86038.13;;;46.50;8.90
80682;BME280;70045;40.200;44.582;2023-08-06T11:53:02;86045.44;;;46.26;8.92
80682;BME280;70045;40.200;44.582;2023-08-06T11:55:28;86035.91;;;46.09;8.89
80682;BME280;70045;40.200;44.582;2023-08-06T11:57:54;86033.09;;;46.45;9.23
80682;BME280;70045;40.200;44.582;2023-08-06T12:00:24;86029.13;;;46.68;8.27
80682;BME280;70045;40.200;44.582;2023-08-06T12:02:50;86030.13;;;46.56;9.04
80682;BME280;70045;40.200;44.582;2023-08-06T12:07:47;86026.28;;;46.26;8.75
80682;BME280;70045;40.200;44.582;2023-08-06T12:10:14;86029.97;;;46.52;8.62
80682;BME280;70045;40.200;44.582;2023-08-06T12:12:42;86029.78;;;47.08;8.25
80682;BME280;70045;40.200;44.582;2023-08-06T12:15:08;86044.00;;;47.03;8.65
80682;BME280;70045;40.200;44.582;2023-08-06T12:17:34;86029.22;;;46.32;9.02
80682;BME280;70045;40.200;44.582;2023-08-06T12:20:00;86039.88;;;45.85;8.86
80682;BME280;70045;40.200;44.582;2023-08-06T12:22:26;86033.00;;;46.22;8.89
80682;BME280;70045;40.200;44.582;2023-08-06T12:24:54;86027.78;;;46.11;8.66
80682;BME280;70045;40.200;44.582;2023-08-06T12:27:19;86028.97;;;45.88;9.01
80682;BME280;70045;40.200;44.582;2023-08-06T12:29:48;86021.44;;;46.06;9.08
80682;BME280;70045;40.200;44.582;2023-08-06T12:32:14;86013.94;;;44.83;9.93
80682;BME280;70045;40.200;44.582;2023-08-06T12:34:40;86015.81;;;43.98;10.04
80682;BME280;70045;40.200;44.582;2023-08-06T12:37:09;85998.34;;;43.58;10.38
80682;BME280;70045;40.200;44.582;2023-08-06T12:39:35;86016.25;;;43.17;10.66
80682;BME280;70045;40.200;44.582;2023-08-06T12:42:03;86024.41;;;42.18;11.30
80682;BME280;70045;40.200;44.582;2023-08-06T12:44:28;86015.34;;;41.48;11.51
80682;BME280;70045;40.200;44.582;2023-08-06T12:46:54;86016.56;;;40.82;12.07
80682;BME280;70045;40.200;44.582;2023-08-06T12:49:22;86016.41;;;40.80;12.05
80682;BME280;70045;40.200;44.582;2023-08-06T12:51:51;86012.94;;;41.54;11.72
80682;BME280;70045;40.200;44.582;2023-08-06T12:54:17;86016.63;;;42.12;11.52
80682;BME280;70045;40.200;44.582;2023-08-06T12:56:42;86014.31;;;42.35;11.33
80682;BME280;70045;40.200;44.582;2023-08-06T12:59:08;86014.06;;;42.86;10.58
80682;BME280;70045;40.200;44.582;2023-08-06T13:01:37;86022.28;;;42.58;11.07